Portada
METAR-TAF:

METAR-TAF

Aeroports :

Maracaibo, Veneçuela

latitud: 10-34N, longitud: 071-44W, altitud: 66 m

Observació

L'informe es va fer fa 43 minuts, a les 06:03 UTC
Temperatura
Pressió

METAR: SVMC 280603Z AUTO NIL

Hora: 02:46 (06:46 UTC)

Pronòstic

L'informe es va fer fa 2 hores i 46 minuts, a les 04:00 UTC
Pronòstic vàlid del 28 a les 06 UTC al 29 a les 06 UTC
Vent kt del Nord
Visibilitat 10 km o més
Cel ennuvolat a una alçada de 1300 ft
Temporalment
l' 26 a les 02 UTC al 26 a les 12 UTC
Vent kt del Nord
Visibilitat: 8000 m
Núvols disperses a una alçada de 1300 ft
Núvols disperses a una alçada de 6000 ft
pluja

TAF: SVMC 280400Z 2806/2906 00000KT 9999 BKN013 TX33/2819Z TN22/2908Z TEMPO 2602/2612 00000KT 8000 RA SCT013 SCT060

Observacions i pronòstics meteorològics de més de 4000 aeroports (METAR i TAF).

Les estacions disponibles són els punts grocs i vermells al mapa.

Posi el ratolí al punt desitjat per veure el nom de l'estació.

Feu clic per veure les observacions i els pronòstics meteorològics.

Per canviar el mapa: feu clic els botons verds amb una creu de color negre per apropar; al botó verd amb un guió per allunyar la imatge; o en les fletxes verdes per a mapes adjacents.


METAR-TAF: